Map

Track Data

SID SEASON NUMBER BASIN SUBBASIN NAME ISO_TIME NATURE LAT LON WMO_WIND WMO_PRES WMO_AGENCY TRACK_TYPE DIST2LAND LANDFALL IFLAG USA_AGENCY USA_ATCF_ID USA_LAT USA_LON USA_RECORD USA_STATUS USA_WIND USA_PRES USA_SSHS USA_R34_NE USA_R34_SE USA_R34_SW USA_R34_NW USA_R50_NE USA_R50_SE USA_R50_SW USA_R50_NW USA_R64_NE USA_R64_SE USA_R64_SW USA_R64_NW USA_POCI USA_ROCI USA_RMW USA_EYE TOKYO_LAT TOKYO_LON TOKYO_GRADE TOKYO_WIND TOKYO_PRES TOKYO_R50_DIR TOKYO_R50_LONG TOKYO_R50_SHORT TOKYO_R30_DIR TOKYO_R30_LONG TOKYO_R30_SHORT TOKYO_LAND CMA_LAT CMA_LON CMA_CAT CMA_WIND CMA_PRES HKO_LAT HKO_LON HKO_CAT HKO_WIND HKO_PRES NEWDELHI_LAT NEWDELHI_LON NEWDELHI_GRADE NEWDELHI_WIND NEWDELHI_PRES NEWDELHI_CI NEWDELHI_DP NEWDELHI_POCI REUNION_LAT REUNION_LON REUNION_TYPE REUNION_WIND REUNION_PRES REUNION_TNUM REUNION_CI REUNION_RMW REUNION_R34_NE REUNION_R34_SE REUNION_R34_SW REUNION_R34_NW REUNION_R50_NE REUNION_R50_SE REUNION_R50_SW REUNION_R50_NW REUNION_R64_NE REUNION_R64_SE REUNION_R64_SW REUNION_R64_NW BOM_LAT BOM_LON BOM_TYPE BOM_WIND BOM_PRES BOM_TNUM BOM_CI BOM_RMW BOM_R34_NE BOM_R34_SE BOM_R34_SW BOM_R34_NW BOM_R50_NE BOM_R50_SE BOM_R50_SW BOM_R50_NW BOM_R64_NE BOM_R64_SE BOM_R64_SW BOM_R64_NW BOM_ROCI BOM_POCI BOM_EYE BOM_POS_METHOD BOM_PRES_METHOD NADI_LAT NADI_LON NADI_CAT NADI_WIND NADI_PRES WELLINGTON_LAT WELLINGTON_LON WELLINGTON_WIND WELLINGTON_PRES DS824_LAT DS824_LON DS824_STAGE DS824_WIND DS824_PRES TD9636_LAT TD9636_LON TD9636_STAGE TD9636_WIND TD9636_PRES TD9635_LAT TD9635_LON TD9635_WIND TD9635_PRES TD9635_ROCI NEUMANN_LAT NEUMANN_LON NEUMANN_CLASS NEUMANN_WIND NEUMANN_PRES MLC_LAT MLC_LON MLC_CLASS MLC_WIND MLC_PRES USA_GUST BOM_GUST BOM_GUST_PER REUNION_GUST REUNION_GUST_PER USA_SEAHGT USA_SEARAD_NE USA_SEARAD_SE USA_SEARAD_SW USA_SEARAD_NW STORM_SPEED STORM_DIR
1913276N41289 1913 51 NA NA NOT_NAMED 1913-10-02 12:00:00 ET 41.0000 -71.0000 50 hurdat_atl main 55 55 O_____________ hurdat_atl AL051913 41.0000 -71.0000 EX 50 -4 6 143
1913276N41289 1913 51 NA NA NOT_NAMED 1913-10-02 15:00:00 ET 40.7501 -70.7496 main 77 77 P_____________ AL051913 40.7501 -70.7496 EX 50 -4 6 143
1913276N41289 1913 51 NA NA NOT_NAMED 1913-10-02 18:00:00 ET 40.5000 -70.5000 50 hurdat_atl main 112 112 O_____________ hurdat_atl AL051913 40.5000 -70.5000 EX 50 -4 6 143
1913276N41289 1913 51 NA NA NOT_NAMED 1913-10-02 21:00:00 ET 40.2499 -70.2502 main 148 148 P_____________ AL051913 40.2499 -70.2502 EX 50 -4 6 143
1913276N41289 1913 51 NA NA NOT_NAMED 1913-10-03 00:00:00 ET 40.0000 -70.0000 50 hurdat_atl main 176 176 O_____________ hurdat_atl AL051913 40.0000 -70.0000 EX 50 -4 6 142
1913276N41289 1913 51 NA NA NOT_NAMED 1913-10-03 03:00:00 ET 39.7499 -69.7502 main 214 214 P_____________ AL051913 39.7499 -69.7502 EX 50 -4 6 142
1913276N41289 1913 51 NA NA NOT_NAMED 1913-10-03 06:00:00 ET 39.5000 -69.5000 50 hurdat_atl main 244 244 O_____________ hurdat_atl AL051913 39.5000 -69.5000 EX 50 -4 6 144
1913276N41289 1913 51 NA NA NOT_NAMED 1913-10-03 09:00:00 ET 39.2348 -69.2727 main 281 281 P_____________ AL051913 39.2348 -69.2727 EX 50 -4 6 142
1913276N41289 1913 51 NA NA NOT_NAMED 1913-10-03 12:00:00 ET 39.0000 -69.0000 50 hurdat_atl main 312 312 O_____________ hurdat_atl AL051913 39.0000 -69.0000 EX 50 -4 6 129
1913276N41289 1913 51 NA NA NOT_NAMED 1913-10-03 15:00:00 ET 38.8349 -68.6378 main 343 343 P_____________ AL051913 38.8349 -68.6378 EX 52 -4 7 116
1913276N41289 1913 51 NA NA NOT_NAMED 1913-10-03 18:00:00 ET 38.7000 -68.2000 55 hurdat_atl main 366 366 O_____________ hurdat_atl AL051913 38.7000 -68.2000 EX 55 -4 8 112
1913276N41289 1913 51 NA NA NOT_NAMED 1913-10-03 21:00:00 ET 38.5427 -67.6924 main 405 405 P_____________ AL051913 38.5427 -67.6924 EX 55 -4 8 111
1913276N41289 1913 51 NA NA NOT_NAMED 1913-10-04 00:00:00 ET 38.4000 -67.2000 55 hurdat_atl main 437 437 O_____________ hurdat_atl AL051913 38.4000 -67.2000 EX 55 -4 7 110
1913276N41289 1913 51 NA NA NOT_NAMED 1913-10-04 03:00:00 ET 38.2923 -66.8128 main 465 465 P_____________ AL051913 38.2923 -66.8128 EX 55 -4 6 110
1913276N41289 1913 51 NA NA NOT_NAMED 1913-10-04 06:00:00 ET 38.2000 -66.5000 55 hurdat_atl main 490 490 O_____________ hurdat_atl AL051913 38.2000 -66.5000 EX 55 -4 5 112
1913276N41289 1913 51 NA NA NOT_NAMED 1913-10-04 09:00:00 ET 38.1000 -66.2050 main 514 514 P_____________ AL051913 38.1000 -66.2050 EX 55 -4 4 117
1913276N41289 1913 51 NA NA NOT_NAMED 1913-10-04 12:00:00 ET 38.0000 -66.0000 55 hurdat_atl main 534 534 O_____________ hurdat_atl AL051913 38.0000 -66.0000 EX 55 -4 3 129
1913276N41289 1913 51 NA NA NOT_NAMED 1913-10-04 15:00:00 ET 37.8999 -65.8976 main 548 548 P_____________ AL051913 37.8999 -65.8976 EX 55 -4 2 157
1913276N41289 1913 51 NA NA NOT_NAMED 1913-10-04 18:00:00 ET 37.8000 -65.9000 55 hurdat_atl main 557 557 O_____________ hurdat_atl AL051913 37.8000 -65.9000 EX 55 -4 2 197
1913276N41289 1913 51 NA NA NOT_NAMED 1913-10-04 21:00:00 ET 37.7075 -65.9624 main 560 560 P_____________ AL051913 37.7075 -65.9624 EX 55 -4 3 219
1913276N41289 1913 51 NA NA NOT_NAMED 1913-10-05 00:00:00 ET 37.6000 -66.1000 55 hurdat_atl main 564 559 O_____________ hurdat_atl AL051913 37.6000 -66.1000 EX 55 -4 4 225
1913276N41289 1913 51 NA NA NOT_NAMED 1913-10-05 03:00:00 ET 37.4575 -66.2775 main 564 564 P_____________ AL051913 37.4575 -66.2775 EX 55 -4 4 226
1913276N41289 1913 51 NA NA NOT_NAMED 1913-10-05 06:00:00 ET 37.3000 -66.5000 55 hurdat_atl main 573 569 O_____________ hurdat_atl AL051913 37.3000 -66.5000 EX 55 -4 5 231
1913276N41289 1913 51 NA NA NOT_NAMED 1913-10-05 09:00:00 ET 37.1649 -66.7347 main 574 574 P_____________ AL051913 37.1649 -66.7347 EX 55 -4 5 233
1913276N41289 1913 51 NA NA NOT_NAMED 1913-10-05 12:00:00 ET 37.0000 -67.0000 55 hurdat_atl main 582 579 O_____________ hurdat_atl AL051913 37.0000 -67.0000 EX 55 -4 6 227
1913276N41289 1913 51 NA NA NOT_NAMED 1913-10-05 15:00:00 ET 36.7648 -67.2774 main 592 592 P_____________ AL051913 36.7648 -67.2774 EX 55 -4 7 224
1913276N41289 1913 51 NA NA NOT_NAMED 1913-10-05 18:00:00 ET 36.5000 -67.6000 55 hurdat_atl main 614 611 O_____________ hurdat_atl AL051913 36.5000 -67.6000 EX 55 -4 8 227
1913276N41289 1913 51 NA NA NOT_NAMED 1913-10-05 21:00:00 ET 36.2498 -67.9698 main 634 631 P_____________ AL051913 36.2498 -67.9698 EX 52 -4 8 232
1913276N41289 1913 51 NA NA NOT_NAMED 1913-10-06 00:00:00 TS 36.0000 -68.4000 50 hurdat_atl main 638 602 O_____________ hurdat_atl AL051913 36.0000 -68.4000 TS 50 0 9 236
1913276N41289 1913 51 NA NA NOT_NAMED 1913-10-06 03:00:00 TS 35.7499 -68.8773 main 594 550 P_____________ AL051913 35.7499 -68.8773 TS 50 0 10 238
1913276N41289 1913 51 NA NA NOT_NAMED 1913-10-06 06:00:00 TS 35.5000 -69.4000 50 hurdat_atl main 550 508 O_____________ hurdat_atl AL051913 35.5000 -69.4000 TS 50 0 10 241
1913276N41289 1913 51 NA NA NOT_NAMED 1913-10-06 09:00:00 TS 35.2647 -69.9344 main 508 460 P_____________ AL051913 35.2647 -69.9344 TS 50 0 10 241
1913276N41289 1913 51 NA NA NOT_NAMED 1913-10-06 12:00:00 TS 35.0000 -70.5000 50 hurdat_atl main 460 417 O_____________ hurdat_atl AL051913 35.0000 -70.5000 TS 50 0 11 238
1913276N41289 1913 51 NA NA NOT_NAMED 1913-10-06 15:00:00 TS 34.6649 -71.1000 main 417 383 P_____________ AL051913 34.6649 -71.1000 TS 50 0 12 235
1913276N41289 1913 51 NA NA NOT_NAMED 1913-10-06 18:00:00 TS 34.3000 -71.7000 50 hurdat_atl main 383 361 O_____________ hurdat_atl AL051913 34.3000 -71.7000 TS 50 0 12 233
1913276N41289 1913 51 NA NA NOT_NAMED 1913-10-06 21:00:00 TS 33.9422 -72.2571 main 360 346 P_____________ AL051913 33.9422 -72.2571 TS 50 0 12 233
1913276N41289 1913 51 NA NA NOT_NAMED 1913-10-07 00:00:00 TS 33.6000 -72.8000 50 hurdat_atl main 346 328 O_____________ hurdat_atl AL051913 33.6000 -72.8000 TS 50 0 11 234
1913276N41289 1913 51 NA NA NOT_NAMED 1913-10-07 03:00:00 TS 33.2773 -73.3498 main 328 305 P_____________ AL051913 33.2773 -73.3498 TS 50 0 11 237
1913276N41289 1913 51 NA NA NOT_NAMED 1913-10-07 06:00:00 TS 33.0000 -73.9000 50 hurdat_atl main 305 287 O_____________ hurdat_atl AL051913 33.0000 -73.9000 TS 50 0 11 241
1913276N41289 1913 51 NA NA NOT_NAMED 1913-10-07 09:00:00 TS 32.7549 -74.4575 main 280 272 P_____________ AL051913 32.7549 -74.4575 TS 52 0 10 247
1913276N41289 1913 51 NA NA NOT_NAMED 1913-10-07 12:00:00 TS 32.6000 -75.0000 55 hurdat_atl main 272 251 O_____________ hurdat_atl AL051913 32.6000 -75.0000 TS 55 0 9 258
1913276N41289 1913 51 NA NA NOT_NAMED 1913-10-07 15:00:00 TS 32.5696 -75.4995 main 251 235 P_____________ AL051913 32.5696 -75.4995 TS 55 0 8 270
1913276N41289 1913 51 NA NA NOT_NAMED 1913-10-07 18:00:00 TS 32.6000 -76.0000 55 hurdat_atl main 235 200 O_____________ hurdat_atl AL051913 32.6000 -76.0000 TS 55 0 9 271
1913276N41289 1913 51 NA NA NOT_NAMED 1913-10-07 21:00:00 TS 32.5849 -76.5428 main 200 167 P_____________ AL051913 32.5849 -76.5428 TS 57 0 9 270
1913276N41289 1913 51 NA NA NOT_NAMED 1913-10-08 00:00:00 TS 32.6000 -77.1000 60 hurdat_atl main 167 138 O_____________ hurdat_atl AL051913 32.6000 -77.1000 TS 60 0 9 276
1913276N41289 1913 51 NA NA NOT_NAMED 1913-10-08 03:00:00 TS 32.6849 -77.6648 main 136 103 P_____________ AL051913 32.6849 -77.6648 TS 62 0 9 282
1913276N41289 1913 51 NA NA NOT_NAMED 1913-10-08 06:00:00 TS 32.8000 -78.2000 65 hurdat_atl main 103 65 O_____________ hurdat_atl AL051913 32.8000 -78.2000 HU 65 1 9 284
1913276N41289 1913 51 NA NA NOT_NAMED 1913-10-08 09:00:00 TS 32.8881 -78.6631 main 57 24 P_____________ AL051913 32.8881 -78.6631 HU 65 1 8 285
1913276N41289 1913 51 NA NA NOT_NAMED 1913-10-08 12:00:00 TS 33.0000 -79.1000 65 hurdat_atl main 24 0 O_____________ hurdat_atl AL051913 33.0000 -79.1000 HU 65 1 8 289
1913276N41289 1913 51 NA NA NOT_NAMED 1913-10-08 14:00:00 TS 33.1000 -79.4000 65 hurdat_atl main 0 0 O_____________ hurdat_atl AL051913 33.1000 -79.4000 L HU 65 1 8 291
1913276N41289 1913 51 NA NA NOT_NAMED 1913-10-08 15:00:00 TS 33.1341 -79.5237 main 0 0 P_____________ AL051913 33.1341 -79.5237 HU 60 0 5 287
1913276N41289 1913 51 NA NA NOT_NAMED 1913-10-08 18:00:00 TS 33.2000 -79.8000 45 hurdat_atl main 0 0 O_____________ hurdat_atl AL051913 33.2000 -79.8000 TS 45 0 5 291
1913276N41289 1913 51 NA NA NOT_NAMED 1913-10-08 21:00:00 TS 33.2954 -80.0324 main 0 0 P_____________ AL051913 33.2954 -80.0324 TS 42 0 4 301
1913276N41289 1913 51 NA NA NOT_NAMED 1913-10-09 00:00:00 TS 33.4000 -80.2000 40 hurdat_atl main 0 0 O_____________ hurdat_atl AL051913 33.4000 -80.2000 TS 40 0 3 310
1913276N41289 1913 51 NA NA NOT_NAMED 1913-10-09 03:00:00 TS 33.5000 -80.3300 main 0 0 P_____________ AL051913 33.5000 -80.3300 TS 37 0 3 320
1913276N41289 1913 51 NA NA NOT_NAMED 1913-10-09 06:00:00 TS 33.6000 -80.4000 35 hurdat_atl main 0 0 O_____________ hurdat_atl AL051913 33.6000 -80.4000 TS 35 0 2 337
1913276N41289 1913 51 NA NA NOT_NAMED 1913-10-09 09:00:00 TS 33.7000 -80.4225 main 0 0 P_____________ AL051913 33.7000 -80.4225 TS 35 0 2 8
1913276N41289 1913 51 NA NA NOT_NAMED 1913-10-09 12:00:00 TS 33.8000 -80.4000 35 hurdat_atl main 0 0 O_____________ hurdat_atl AL051913 33.8000 -80.4000 TS 35 0 2 13
1913276N41289 1913 51 NA NA NOT_NAMED 1913-10-09 15:00:00 TS 33.8925 -80.3650 main 0 0 P_____________ AL051913 33.8925 -80.3650 TS 35 0 2 23
1913276N41289 1913 51 NA NA NOT_NAMED 1913-10-09 18:00:00 TS 34.0000 -80.3000 35 hurdat_atl main 0 0 O_____________ hurdat_atl AL051913 34.0000 -80.3000 TS 35 0 3 26
1913276N41289 1913 51 NA NA NOT_NAMED 1913-10-09 21:00:00 TS 34.1575 -80.2076 main 0 0 P_____________ AL051913 34.1575 -80.2076 TS 35 0 3 28
1913276N41289 1913 51 NA NA NOT_NAMED 1913-10-10 00:00:00 TS 34.3000 -80.1000 35 hurdat_atl main 0 0 O_____________ hurdat_atl AL051913 34.3000 -80.1000 TS 35 0 3 38
1913276N41289 1913 51 NA NA NOT_NAMED 1913-10-10 03:00:00 TS 34.3650 -80.0074 main 0 0 P_____________ AL051913 34.3650 -80.0074 TS 35 0 2 58
1913276N41289 1913 51 NA NA NOT_NAMED 1913-10-10 06:00:00 TS 34.4000 -79.9000 35 hurdat_atl main 0 0 O_____________ hurdat_atl AL051913 34.4000 -79.9000 TS 35 0 2 65
1913276N41289 1913 51 NA NA NOT_NAMED 1913-10-10 09:00:00 TS 34.4575 -79.7650 main 0 0 P_____________ AL051913 34.4575 -79.7650 TS 32 -1 3 68
1913276N41289 1913 51 NA NA NOT_NAMED 1913-10-10 12:00:00 TS 34.5000 -79.6000 30 hurdat_atl main 0 0 O_____________ hurdat_atl AL051913 34.5000 -79.6000 TD 30 -1 3 80
1913276N41289 1913 51 NA NA NOT_NAMED 1913-10-10 15:00:00 TS 34.5075 -79.4075 main 0 0 P_____________ AL051913 34.5075 -79.4075 TD 30 -1 3 90
1913276N41289 1913 51 NA NA NOT_NAMED 1913-10-10 18:00:00 TS 34.5000 -79.2000 30 hurdat_atl main 0 0 O_____________ hurdat_atl AL051913 34.5000 -79.2000 TD 30 -1 3 92
1913276N41289 1913 51 NA NA NOT_NAMED 1913-10-10 21:00:00 TS 34.4975 -78.9975 main 0 0 P_____________ AL051913 34.4975 -78.9975 TD 27 -1 3 90
1913276N41289 1913 51 NA NA NOT_NAMED 1913-10-11 00:00:00 ET 34.5000 -78.8000 25 hurdat_atl main 0 O_____________ hurdat_atl AL051913 34.5000 -78.8000 EX 25 -4 3 89

About IBTrACS Database

This database is a web-friendly format of International Best Track Archive for Climate Stewardship (IBTrACS), a global best track data archive curated by NOAA dating back to 1842.

Updated: 2021-10-25